Time;durP1;ratioP1;P1;durP2;ratioP2;P2;SDS_P1;SDS_P2;PMS_P1;PMS_P2;Temp;Humidity;BMP_temperature;BMP_pressure;BME280_temperature;BME280_humidity;BME280_pressure;Samples;Min_cycle;Max_cycle;Signal;HPM_P1;HPM_P2
2022/09/15 00:01:31;;;;;;;27.02;17.50;;;16.70;99.90;;;;;;5089854;28;20192;-72
2022/09/15 00:03:57;;;;;;;29.10;18.20;;;16.70;99.90;;;;;;5083083;28;20214;-72
2022/09/15 00:06:23;;;;;;;27.17;17.48;;;16.70;99.90;;;;;;5071926;28;20191;-71
2022/09/15 00:08:50;;;;;;;28.83;17.60;;;16.70;99.90;;;;;;5078146;28;20203;-71
2022/09/15 00:11:29;;;;;;;22.10;15.18;;;16.70;99.90;;;;;;5089107;28;20202;-71
2022/09/15 00:13:56;;;;;;;28.65;17.45;;;16.70;99.90;;;;;;5085687;28;20164;-71
2022/09/15 00:16:27;;;;;;;26.23;18.08;;;16.70;99.90;;;;;;5088091;28;20183;-71
2022/09/15 00:18:52;;;;;;;24.55;16.95;;;16.60;99.90;;;;;;5091707;28;20215;-72
2022/09/15 00:21:21;;;;;;;25.75;16.13;;;16.60;99.90;;;;;;5083498;28;20241;-72
2022/09/15 00:23:47;;;;;;;26.38;16.52;;;16.60;99.90;;;;;;5089421;28;20164;-68
2022/09/15 00:26:16;;;;;;;32.42;19.42;;;16.60;99.90;;;;;;5096005;28;20187;-69
2022/09/15 00:28:44;;;;;;;25.58;16.52;;;16.60;99.90;;;;;;5094778;28;20207;-70
2022/09/15 00:31:13;;;;;;;29.83;17.90;;;16.60;99.90;;;;;;5088713;28;20199;-72
2022/09/15 00:33:40;;;;;;;26.75;16.33;;;16.60;99.90;;;;;;5089274;28;20339;-71
2022/09/15 00:36:10;;;;;;;25.17;15.90;;;16.60;99.90;;;;;;5070714;28;20199;-71
2022/09/15 00:38:36;;;;;;;24.20;14.77;;;16.60;99.90;;;;;;5086463;28;20187;-71
2022/09/15 00:41:04;;;;;;;26.98;15.88;;;16.60;99.90;;;;;;5085889;28;20230;-69
2022/09/15 00:43:46;;;;;;;23.90;15.38;;;16.60;99.90;;;;;;5091945;28;20181;-69
2022/09/15 00:46:14;;;;;;;27.17;15.48;;;16.50;99.90;;;;;;5093442;28;20179;-69
2022/09/15 00:48:49;;;;;;;25.98;14.93;;;16.50;99.90;;;;;;5084553;28;20204;-72
2022/09/15 00:51:20;;;;;;;24.90;14.93;;;16.50;99.90;;;;;;5079133;28;20204;-72
2022/09/15 00:53:47;;;;;;;23.77;15.65;;;16.50;99.90;;;;;;5087106;28;20184;-72
2022/09/15 00:56:16;;;;;;;27.27;16.77;;;16.50;99.90;;;;;;5097294;28;20191;-71
2022/09/15 00:58:47;;;;;;;25.65;16.15;;;16.50;99.90;;;;;;5089660;28;20168;-72
2022/09/15 01:01:16;;;;;;;23.88;16.05;;;16.40;99.90;;;;;;5091484;28;20183;-70
2022/09/15 01:03:44;;;;;;;25.25;17.00;;;16.40;99.90;;;;;;5091469;28;20191;-72
2022/09/15 01:06:15;;;;;;;26.67;16.02;;;16.40;99.90;;;;;;5089797;28;20183;-67
2022/09/15 01:08:56;;;;;;;25.63;16.52;;;16.40;99.90;;;;;;5087981;28;20211;-71
2022/09/15 01:11:25;;;;;;;24.45;15.27;;;16.40;99.90;;;;;;5095492;28;20182;-71
2022/09/15 01:13:53;;;;;;;22.88;14.82;;;16.40;99.90;;;;;;5092461;28;20148;-71
2022/09/15 01:17:08;;;;;;;24.70;16.17;;;16.40;99.90;;;;;;5095426;28;20177;-68
2022/09/15 01:20:11;;;;;;;24.85;15.73;;;16.40;99.90;;;;;;5058435;28;20208;-72
2022/09/15 01:22:45;;;;;;;24.85;15.95;;;16.40;99.90;;;;;;5074499;28;20176;-72
2022/09/15 01:25:29;;;;;;;24.00;16.63;;;16.40;99.90;;;;;;5077180;28;20211;-70
2022/09/15 01:27:58;;;;;;;23.05;16.77;;;16.40;99.90;;;;;;5087037;28;20203;-71
2022/09/15 01:30:26;;;;;;;23.67;16.80;;;16.40;99.90;;;;;;5068816;28;20185;-72
2022/09/15 01:33:16;;;;;;;21.95;16.10;;;16.40;99.90;;;;;;5082617;28;20164;-72
2022/09/15 01:36:00;;;;;;;21.98;15.48;;;16.40;99.90;;;;;;5074605;28;20186;-69
2022/09/15 01:38:38;;;;;;;23.23;15.40;;;16.30;99.90;;;;;;5082125;28;20196;-71
2022/09/15 01:41:18;;;;;;;21.60;14.55;;;16.30;99.90;;;;;;5082937;28;20175;-68
2022/09/15 01:44:08;;;;;;;21.48;15.32;;;16.40;99.90;;;;;;5070523;28;20192;-71
2022/09/15 01:46:39;;;;;;;22.20;15.20;;;16.40;99.90;;;;;;5082081;28;20192;-72
2022/09/15 01:49:09;;;;;;;23.98;17.25;;;16.40;99.90;;;;;;5084897;28;20214;-68
2022/09/15 01:51:39;;;;;;;21.52;15.30;;;16.30;99.90;;;;;;5086484;28;20235;-70
2022/09/15 01:54:06;;;;;;;20.83;15.45;;;16.30;99.90;;;;;;5089923;28;20264;-72
2022/09/15 01:56:32;;;;;;;21.30;14.57;;;16.30;99.90;;;;;;5086170;28;20180;-72
2022/09/15 01:58:57;;;;;;;17.88;13.43;;;16.30;99.90;;;;;;5089335;28;20179;-70
2022/09/15 02:01:49;;;;;;;20.05;14.15;;;16.30;99.90;;;;;;5090405;28;20275;-68
2022/09/15 02:04:30;;;;;;;21.70;15.18;;;16.30;99.90;;;;;;5091764;28;20218;-72
2022/09/15 02:07:30;;;;;;;20.88;14.68;;;16.30;99.90;;;;;;5078863;28;20255;-72
2022/09/15 02:10:25;;;;;;;26.20;16.50;;;16.30;99.90;;;;;;5088244;28;20192;-71
2022/09/15 02:13:04;;;;;;;19.45;14.38;;;16.30;99.90;;;;;;5084727;28;20196;-70
2022/09/15 02:15:41;;;;;;;20.02;14.50;;;16.30;99.90;;;;;;5076946;28;20194;-71
2022/09/15 02:18:09;;;;;;;19.33;14.52;;;16.30;99.90;;;;;;5095351;28;20203;-70
2022/09/15 02:20:45;;;;;;;23.75;16.38;;;16.20;99.90;;;;;;5091416;28;20233;-72
2022/09/15 02:23:25;;;;;;;22.30;15.60;;;16.20;99.90;;;;;;5071161;28;20251;-72
2022/09/15 02:25:59;;;;;;;22.42;15.13;;;16.20;99.90;;;;;;5090683;28;20184;-72
2022/09/15 02:28:30;;;;;;;20.58;13.57;;;16.20;99.90;;;;;;5089651;28;20201;-72
2022/09/15 02:30:58;;;;;;;20.08;14.48;;;16.20;99.90;;;;;;5088059;28;20164;-71
2022/09/15 02:33:31;;;;;;;18.67;14.20;;;16.20;99.90;;;;;;5087590;28;20172;-72
2022/09/15 02:35:58;;;;;;;20.48;13.82;;;16.20;99.90;;;;;;5084997;28;20165;-73
2022/09/15 02:38:34;;;;;;;20.70;14.30;;;16.20;99.90;;;;;;5081134;28;20235;-72
2022/09/15 02:41:01;;;;;;;22.38;14.32;;;16.20;99.90;;;;;;5090268;28;20328;-71
2022/09/15 02:43:28;;;;;;;21.77;13.88;;;16.20;99.90;;;;;;5089161;28;20210;-72
2022/09/15 02:45:59;;;;;;;22.67;15.38;;;16.30;99.90;;;;;;5099572;28;20239;-66
2022/09/15 02:48:24;;;;;;;22.35;14.32;;;16.30;99.90;;;;;;5097407;28;20192;-72
2022/09/15 02:50:50;;;;;;;21.67;15.38;;;16.30;99.90;;;;;;5089773;28;20196;-72
2022/09/15 02:53:15;;;;;;;21.75;15.13;;;16.30;99.90;;;;;;5092565;28;20187;-72
2022/09/15 02:55:41;;;;;;;19.05;13.55;;;16.30;99.90;;;;;;5093390;28;20196;-72
2022/09/15 02:58:07;;;;;;;18.10;13.93;;;16.30;99.90;;;;;;5086710;28;20184;-70
2022/09/15 03:00:33;;;;;;;18.95;13.57;;;16.30;99.90;;;;;;5083939;28;20219;-73
2022/09/15 03:02:58;;;;;;;20.33;14.05;;;16.40;99.90;;;;;;5084362;28;20258;-72
2022/09/15 03:05:31;;;;;;;19.63;14.15;;;16.40;99.90;;;;;;5085317;28;20176;-71
2022/09/15 03:07:58;;;;;;;21.13;14.52;;;16.40;99.90;;;;;;5085063;28;20215;-73
2022/09/15 03:10:27;;;;;;;20.60;13.90;;;16.30;99.90;;;;;;5086829;28;20178;-73
2022/09/15 03:12:56;;;;;;;21.65;14.05;;;16.40;99.90;;;;;;5090454;28;20198;-74
2022/09/15 03:15:23;;;;;;;17.73;13.48;;;16.40;99.90;;;;;;5097591;28;20168;-74
2022/09/15 03:17:49;;;;;;;21.08;14.80;;;16.40;99.90;;;;;;5085589;28;20207;-73
2022/09/15 03:20:20;;;;;;;17.95;13.27;;;16.30;99.90;;;;;;5084293;28;20180;-73
2022/09/15 03:22:46;;;;;;;20.73;13.75;;;16.40;99.90;;;;;;5101743;28;20193;-73
2022/09/15 03:25:12;;;;;;;19.95;14.55;;;16.40;99.90;;;;;;5083608;28;20200;-72
2022/09/15 03:27:38;;;;;;;18.08;13.18;;;16.40;99.90;;;;;;5076752;28;20259;-73
2022/09/15 03:30:05;;;;;;;17.90;12.80;;;16.30;99.90;;;;;;5086940;28;20206;-71
2022/09/15 03:32:31;;;;;;;18.52;13.43;;;16.40;99.90;;;;;;5086400;28;20166;-72
2022/09/15 03:34:57;;;;;;;17.77;13.43;;;16.30;99.90;;;;;;5082627;28;20263;-74
2022/09/15 03:37:24;;;;;;;19.17;13.15;;;16.30;99.90;;;;;;5077678;28;20173;-72
2022/09/15 03:39:50;;;;;;;19.92;13.45;;;16.40;99.90;;;;;;5071480;28;20168;-72
2022/09/15 03:42:16;;;;;;;18.92;13.48;;;16.40;99.90;;;;;;5091684;28;20198;-72
2022/09/15 03:44:44;;;;;;;18.90;13.55;;;16.40;99.90;;;;;;5082033;28;20204;-72
2022/09/15 03:47:10;;;;;;;20.35;13.82;;;16.40;99.90;;;;;;5100451;28;20299;-73
2022/09/15 03:49:35;;;;;;;19.92;13.32;;;16.30;99.90;;;;;;5073935;28;20196;-73
2022/09/15 03:52:01;;;;;;;19.50;13.50;;;16.30;99.90;;;;;;5080656;28;20214;-73
2022/09/15 03:54:27;;;;;;;19.25;13.07;;;16.30;99.90;;;;;;5085581;28;20195;-73
2022/09/15 03:56:52;;;;;;;18.60;12.93;;;16.30;99.90;;;;;;5087591;28;20175;-74
2022/09/15 03:59:19;;;;;;;19.73;13.00;;;16.30;99.90;;;;;;5076903;28;20210;-73
2022/09/15 04:01:46;;;;;;;17.98;12.68;;;16.30;99.90;;;;;;5095136;28;20248;-73
2022/09/15 04:04:14;;;;;;;17.52;12.50;;;16.30;99.90;;;;;;5076589;28;20219;-74
2022/09/15 04:06:43;;;;;;;17.67;12.27;;;16.30;99.90;;;;;;5063924;28;20187;-73
2022/09/15 04:09:11;;;;;;;17.55;11.82;;;16.20;99.90;;;;;;5077712;28;20196;-74
2022/09/15 04:11:38;;;;;;;18.83;12.85;;;16.20;99.90;;;;;;5085215;28;20232;-74
2022/09/15 04:14:06;;;;;;;17.48;12.57;;;16.20;99.90;;;;;;5084397;28;20191;-73
2022/09/15 04:16:34;;;;;;;18.17;12.93;;;16.10;99.90;;;;;;5073049;28;20173;-75
2022/09/15 04:18:59;;;;;;;17.75;12.02;;;16.10;99.90;;;;;;5076792;28;20249;-73
2022/09/15 04:21:25;;;;;;;18.38;12.02;;;16.10;99.90;;;;;;5086716;28;20187;-74
2022/09/15 04:23:52;;;;;;;17.40;11.73;;;16.10;99.90;;;;;;5081755;28;20183;-71
2022/09/15 04:26:26;;;;;;;16.55;11.88;;;16.00;99.90;;;;;;5077814;28;20419;-74
2022/09/15 04:28:52;;;;;;;15.20;11.50;;;16.00;99.90;;;;;;5075337;28;20200;-74
2022/09/15 04:31:19;;;;;;;14.20;11.23;;;16.00;99.90;;;;;;5079368;28;20241;-74
2022/09/15 04:33:45;;;;;;;15.32;11.20;;;15.90;99.90;;;;;;5082364;28;20169;-74
2022/09/15 04:36:18;;;;;;;16.63;11.88;;;15.90;99.90;;;;;;5080167;28;20182;-75
2022/09/15 04:38:49;;;;;;;15.90;10.85;;;15.90;99.90;;;;;;5077279;28;20263;-74
2022/09/15 04:41:17;;;;;;;16.20;11.07;;;15.80;99.90;;;;;;5076100;28;20175;-74
2022/09/15 04:43:43;;;;;;;16.52;11.25;;;15.80;99.90;;;;;;5091000;28;20199;-74
2022/09/15 04:46:10;;;;;;;16.00;11.75;;;15.80;99.90;;;;;;5082106;28;20176;-74
2022/09/15 04:48:38;;;;;;;16.27;11.50;;;15.70;99.90;;;;;;5072245;28;20200;-74
2022/09/15 04:51:06;;;;;;;18.73;12.60;;;15.70;99.90;;;;;;5072433;28;20200;-74
2022/09/15 04:53:32;;;;;;;17.50;11.52;;;15.70;99.90;;;;;;5081021;28;20179;-74
2022/09/15 04:56:15;;;;;;;16.15;12.63;;;15.70;99.90;;;;;;5083440;28;20164;-74
2022/09/15 04:58:45;;;;;;;16.13;12.52;;;15.70;99.90;;;;;;5070948;28;20267;-74
2022/09/15 05:01:16;;;;;;;15.13;11.50;;;15.70;99.90;;;;;;5069659;28;20188;-75
2022/09/15 05:03:45;;;;;;;16.48;11.95;;;15.60;99.90;;;;;;5070995;28;20173;-73
2022/09/15 05:06:14;;;;;;;17.42;12.30;;;15.60;99.90;;;;;;5071157;28;20195;-74
2022/09/15 05:08:40;;;;;;;16.65;11.55;;;15.60;99.90;;;;;;5074574;28;20195;-74
2022/09/15 05:11:14;;;;;;;16.92;12.60;;;15.60;99.90;;;;;;5072482;28;20203;-76
2022/09/15 05:13:42;;;;;;;16.42;11.45;;;15.60;99.90;;;;;;5062200;28;20164;-79
2022/09/15 05:16:17;;;;;;;17.75;11.95;;;15.60;99.90;;;;;;5094067;28;20175;-74
2022/09/15 05:18:44;;;;;;;14.88;11.68;;;15.60;99.90;;;;;;5078721;28;20175;-74
2022/09/15 05:21:12;;;;;;;15.82;11.52;;;15.60;99.90;;;;;;5084401;28;20168;-73
2022/09/15 05:23:40;;;;;;;15.32;10.90;;;15.60;99.90;;;;;;5082661;28;20183;-73
2022/09/15 05:26:21;;;;;;;14.82;11.02;;;15.60;99.90;;;;;;5081118;28;20177;-74
2022/09/15 05:28:46;;;;;;;17.60;11.23;;;15.60;99.90;;;;;;5081672;28;20206;-73
2022/09/15 05:31:23;;;;;;;17.38;10.77;;;15.50;99.90;;;;;;5084091;28;20282;-73
2022/09/15 05:33:52;;;;;;;17.15;11.70;;;15.60;99.90;;;;;;5069517;28;20176;-74
2022/09/15 05:36:24;;;;;;;15.02;10.63;;;15.60;99.90;;;;;;5071210;28;20168;-74
2022/09/15 05:38:57;;;;;;;15.60;11.02;;;15.60;99.90;;;;;;5084265;28;20207;-73
2022/09/15 05:41:24;;;;;;;17.27;11.60;;;15.60;99.90;;;;;;5082437;28;20283;-73
2022/09/15 05:43:50;;;;;;;18.42;10.90;;;15.60;99.90;;;;;;5073891;28;20264;-72
2022/09/15 05:46:19;;;;;;;17.27;10.85;;;15.60;99.90;;;;;;5074163;28;20260;-72
2022/09/15 05:48:45;;;;;;;15.30;11.18;;;15.60;99.90;;;;;;5075617;28;20197;-70
2022/09/15 05:51:13;;;;;;;16.67;11.43;;;15.70;99.90;;;;;;5080890;28;20179;-74
2022/09/15 05:53:41;;;;;;;15.77;10.88;;;15.70;99.90;;;;;;5086074;28;20253;-72
2022/09/15 05:56:10;;;;;;;17.98;12.80;;;15.70;99.90;;;;;;5084318;28;20184;-73
2022/09/15 05:58:41;;;;;;;16.85;11.18;;;15.80;99.90;;;;;;5079742;28;20306;-72
2022/09/15 06:01:15;;;;;;;16.50;11.38;;;15.80;99.90;;;;;;5081032;28;20188;-71
2022/09/15 06:03:44;;;;;;;16.33;11.32;;;15.80;99.90;;;;;;5067624;28;20176;-71
2022/09/15 06:06:11;;;;;;;16.15;11.18;;;15.90;99.90;;;;;;5064088;28;20185;-72
2022/09/15 06:08:39;;;;;;;18.85;11.35;;;15.90;99.90;;;;;;5076565;28;20257;-72
2022/09/15 06:11:16;;;;;;;16.55;11.25;;;15.90;99.90;;;;;;5076730;28;20168;-71
2022/09/15 06:13:44;;;;;;;15.80;10.57;;;16.00;99.90;;;;;;5086225;28;20156;-72
2022/09/15 06:16:12;;;;;;;17.25;11.55;;;16.00;99.90;;;;;;5085402;28;20259;-72
2022/09/15 06:18:39;;;;;;;16.42;10.60;;;16.00;99.90;;;;;;5086922;28;20200;-71
2022/09/15 06:21:10;;;;;;;17.17;11.05;;;16.00;99.90;;;;;;5086273;28;20206;-72
2022/09/15 06:23:36;;;;;;;19.35;11.50;;;16.10;99.90;;;;;;5081158;28;20185;-71
2022/09/15 06:26:22;;;;;;;19.30;12.35;;;16.10;99.90;;;;;;5072120;28;20176;-72
2022/09/15 06:28:58;;;;;;;18.45;12.25;;;16.20;99.90;;;;;;5087084;28;20203;-71
2022/09/15 06:31:25;;;;;;;16.10;10.68;;;16.20;99.90;;;;;;5100576;28;20182;-71
2022/09/15 06:33:53;;;;;;;16.73;10.50;;;16.20;99.90;;;;;;5084738;28;20172;-71
2022/09/15 06:36:23;;;;;;;16.13;10.68;;;16.30;99.90;;;;;;5081454;28;20247;-71
2022/09/15 06:38:51;;;;;;;15.10;10.82;;;16.30;99.90;;;;;;5090831;28;20179;-71
2022/09/15 06:41:17;;;;;;;14.48;10.27;;;16.30;99.90;;;;;;5085980;28;20180;-71
2022/09/15 06:43:48;;;;;;;17.20;11.52;;;16.30;99.90;;;;;;5068742;28;20280;-71
2022/09/15 06:46:19;;;;;;;15.10;10.70;;;16.30;99.90;;;;;;5074195;28;20176;-72
2022/09/15 06:48:48;;;;;;;16.77;10.38;;;16.30;99.90;;;;;;5081646;28;20222;-71
2022/09/15 06:51:18;;;;;;;15.18;10.52;;;16.30;99.90;;;;;;5087463;28;20175;-72
2022/09/15 06:53:44;;;;;;;17.77;10.55;;;16.40;99.90;;;;;;5077446;28;20198;-71
2022/09/15 06:56:17;;;;;;;17.48;11.43;;;16.40;99.90;;;;;;5066879;28;20252;-72
2022/09/15 06:58:44;;;;;;;17.70;10.68;;;16.40;99.90;;;;;;5081104;28;20178;-72
2022/09/15 07:01:12;;;;;;;18.27;10.48;;;16.40;99.90;;;;;;5086074;28;20226;-71
2022/09/15 07:03:43;;;;;;;16.27;10.82;;;16.40;99.90;;;;;;5084111;28;20184;-72
2022/09/15 07:06:15;;;;;;;18.17;10.75;;;16.50;99.90;;;;;;5067247;28;20176;-72
2022/09/15 07:08:41;;;;;;;19.35;11.40;;;16.50;99.90;;;;;;5083461;28;20208;-73
2022/09/15 07:11:08;;;;;;;16.83;10.95;;;16.60;99.90;;;;;;5085535;28;20164;-71
2022/09/15 07:13:37;;;;;;;18.23;11.50;;;16.60;99.90;;;;;;5078465;28;20172;-71
2022/09/15 07:16:04;;;;;;;17.13;11.73;;;16.70;99.90;;;;;;5073812;28;20523;-72
2022/09/15 07:18:30;;;;;;;18.48;11.40;;;16.70;99.90;;;;;;5080740;28;20175;-70
2022/09/15 07:21:04;;;;;;;18.35;11.15;;;16.80;99.90;;;;;;5079748;28;20226;-73
2022/09/15 07:23:33;;;;;;;20.13;11.77;;;16.90;99.90;;;;;;5072106;28;20180;-69
2022/09/15 07:26:11;;;;;;;17.30;11.13;;;16.90;99.90;;;;;;5070806;28;20183;-72
2022/09/15 07:28:37;;;;;;;19.08;11.57;;;16.90;99.90;;;;;;5065170;28;20188;-72
2022/09/15 07:31:05;;;;;;;17.13;11.73;;;17.00;99.90;;;;;;5074397;28;20168;-72
2022/09/15 07:33:31;;;;;;;19.23;12.32;;;17.00;99.90;;;;;;5082562;28;20255;-71
2022/09/15 07:35:57;;;;;;;19.13;12.48;;;17.10;99.90;;;;;;5075689;28;20172;-72
2022/09/15 07:38:25;;;;;;;18.95;11.43;;;17.10;99.90;;;;;;5083433;28;20255;-72
2022/09/15 07:40:51;;;;;;;16.55;11.70;;;17.10;99.90;;;;;;5077232;28;20199;-73
2022/09/15 07:43:21;;;;;;;17.50;11.88;;;17.10;99.90;;;;;;5077645;28;20172;-71
2022/09/15 07:45:47;;;;;;;19.08;11.20;;;17.10;99.90;;;;;;5081042;28;20182;-69
2022/09/15 07:48:12;;;;;;;17.55;11.40;;;17.10;99.90;;;;;;5079949;28;20191;-70
2022/09/15 07:50:38;;;;;;;16.10;11.18;;;17.10;99.90;;;;;;5082259;28;20192;-71
2022/09/15 07:53:06;;;;;;;17.98;11.68;;;17.10;99.90;;;;;;5085644;28;20183;-73
2022/09/15 07:55:36;;;;;;;16.60;11.38;;;17.20;99.90;;;;;;5080617;28;20185;-72
2022/09/15 07:58:02;;;;;;;18.73;13.32;;;17.20;99.90;;;;;;5078808;28;20204;-72
2022/09/15 08:00:31;;;;;;;16.95;12.18;;;17.20;99.90;;;;;;5074254;28;20195;-72
2022/09/15 08:02:57;;;;;;;20.88;12.88;;;17.20;99.90;;;;;;5075828;28;20231;-72
2022/09/15 08:05:29;;;;;;;19.05;14.18;;;17.20;99.90;;;;;;5075803;28;20203;-73
2022/09/15 08:07:57;;;;;;;18.00;12.90;;;17.30;99.90;;;;;;5084617;28;20192;-72
2022/09/15 08:10:25;;;;;;;17.23;12.55;;;17.30;99.90;;;;;;5086315;28;20168;-73
2022/09/15 08:12:51;;;;;;;17.52;12.65;;;17.30;99.90;;;;;;5084268;28;20208;-72
2022/09/15 08:15:17;;;;;;;18.20;12.73;;;17.40;99.90;;;;;;5085454;28;20172;-72
2022/09/15 08:17:43;;;;;;;16.77;11.98;;;17.40;99.90;;;;;;5085696;28;20192;-72
2022/09/15 08:20:12;;;;;;;20.25;13.60;;;17.40;99.90;;;;;;5083307;28;20261;-73
2022/09/15 08:22:38;;;;;;;17.33;13.45;;;17.50;99.90;;;;;;5083416;28;20271;-73
2022/09/15 08:25:07;;;;;;;16.50;12.98;;;17.60;99.90;;;;;;5083638;28;20183;-72
2022/09/15 08:27:33;;;;;;;19.42;14.18;;;17.60;99.90;;;;;;5083010;28;20263;-74
2022/09/15 08:29:59;;;;;;;14.57;12.82;;;17.70;99.90;;;;;;5080710;28;20255;-72
2022/09/15 08:32:29;;;;;;;17.85;13.13;;;17.80;99.90;;;;;;5084152;28;20236;-72
2022/09/15 08:35:02;;;;;;;16.20;12.75;;;17.80;99.90;;;;;;5080106;28;20195;-73
2022/09/15 08:37:35;;;;;;;14.48;11.52;;;17.90;99.90;;;;;;5073662;28;20183;-73
2022/09/15 08:40:02;;;;;;;16.63;12.45;;;17.90;99.90;;;;;;5079446;28;20172;-69
2022/09/15 08:42:29;;;;;;;16.42;13.10;;;18.00;99.90;;;;;;5063926;28;20242;-72
2022/09/15 08:45:14;;;;;;;16.42;12.15;;;18.00;99.90;;;;;;5071474;28;20188;-74
2022/09/15 08:47:45;;;;;;;17.75;13.32;;;18.10;99.90;;;;;;5066578;28;20221;-72
2022/09/15 08:50:20;;;;;;;18.20;14.82;;;18.20;99.90;;;;;;5085258;28;20365;-72
2022/09/15 08:52:59;;;;;;;16.63;12.80;;;18.40;99.90;;;;;;5083170;28;20167;-71
2022/09/15 08:55:32;;;;;;;17.27;14.45;;;18.50;99.90;;;;;;5101770;28;20192;-74
2022/09/15 08:57:58;;;;;;;18.63;15.00;;;18.60;99.90;;;;;;5066895;28;20207;-73
2022/09/15 09:00:23;;;;;;;16.05;14.07;;;18.70;99.90;;;;;;5079295;28;20206;-73
2022/09/15 09:03:26;;;;;;;15.90;13.80;;;18.80;99.90;;;;;;5078621;28;20199;-73
2022/09/15 09:06:21;;;;;;;13.55;11.35;;;18.90;99.90;;;;;;5103748;28;20179;-73
2022/09/15 09:09:22;;;;;;;16.35;11.75;;;19.00;99.90;;;;;;5086427;28;20191;-70
2022/09/15 09:12:09;;;;;;;12.75;10.32;;;19.00;99.90;;;;;;5074762;28;20200;-70
2022/09/15 09:14:35;;;;;;;12.65;10.18;;;19.10;99.90;;;;;;5073320;28;20171;-72
2022/09/15 09:17:18;;;;;;;11.57;9.32;;;19.20;99.90;;;;;;5074316;28;20204;-72
2022/09/15 09:19:56;;;;;;;12.05;10.35;;;19.20;99.90;;;;;;5068556;28;20176;-73
2022/09/15 09:22:33;;;;;;;10.40;9.30;;;19.30;99.90;;;;;;5068275;28;20161;-71
2022/09/15 09:25:02;;;;;;;12.18;9.80;;;19.30;99.90;;;;;;5086282;28;20237;-72
2022/09/15 09:27:34;;;;;;;12.15;10.30;;;19.30;99.90;;;;;;5086073;28;20199;-71
2022/09/15 09:30:14;;;;;;;10.88;8.77;;;19.30;99.90;;;;;;5082608;28;20194;-73
2022/09/15 09:32:51;;;;;;;10.35;8.32;;;19.30;99.90;;;;;;5086269;28;20186;-70
2022/09/15 09:35:44;;;;;;;10.63;8.43;;;19.20;99.90;;;;;;5089905;28;20159;-70
2022/09/15 09:38:43;;;;;;;8.70;6.97;;;19.20;99.90;;;;;;5082056;28;20216;-72
2022/09/15 09:41:15;;;;;;;9.63;7.43;;;19.20;99.90;;;;;;5085280;28;20187;-71
2022/09/15 09:43:46;;;;;;;9.40;7.30;;;19.20;99.90;;;;;;5089566;28;20160;-71
2022/09/15 09:46:17;;;;;;;9.70;6.80;;;19.20;99.90;;;;;;5077431;28;20211;-72
2022/09/15 09:49:02;;;;;;;7.05;5.68;;;19.30;99.90;;;;;;5086292;28;20210;-72
2022/09/15 09:51:50;;;;;;;7.20;5.35;;;19.40;99.90;;;;;;5084983;28;20249;-73
2022/09/15 09:54:16;;;;;;;5.65;4.75;;;19.50;99.90;;;;;;5067019;28;20164;-71
2022/09/15 09:56:44;;;;;;;5.07;4.57;;;19.60;99.90;;;;;;5086996;28;20226;-73
2022/09/15 09:59:33;;;;;;;5.50;4.80;;;19.60;99.90;;;;;;5089049;28;20183;-72
2022/09/15 10:02:11;;;;;;;5.78;4.32;;;19.60;99.90;;;;;;5086378;28;20211;-73
2022/09/15 10:04:51;;;;;;;4.10;3.70;;;19.60;99.90;;;;;;5086979;28;20195;-72
2022/09/15 10:07:20;;;;;;;4.22;3.83;;;19.70;99.90;;;;;;5090659;28;20182;-72
2022/09/15 10:09:54;;;;;;;4.72;3.97;;;19.80;99.90;;;;;;5084626;28;20205;-72
2022/09/15 10:12:29;;;;;;;6.15;4.32;;;19.80;99.90;;;;;;5080150;28;20164;-73
2022/09/15 10:14:58;;;;;;;6.40;4.38;;;19.80;99.90;;;;;;5089663;28;20168;-73
2022/09/15 10:17:40;;;;;;;5.25;4.45;;;19.80;99.90;;;;;;5079406;28;20215;-72
2022/09/15 10:20:21;;;;;;;4.78;3.80;;;19.70;99.90;;;;;;5065876;28;20200;-72
2022/09/15 10:22:50;;;;;;;5.05;4.28;;;19.70;99.90;;;;;;5085748;28;20192;-71
2022/09/15 10:25:21;;;;;;;8.45;4.78;;;19.70;99.90;;;;;;5074461;28;20188;-71
2022/09/15 10:28:12;;;;;;;6.07;4.38;;;19.70;99.90;;;;;;5083021;28;20200;-72
2022/09/15 10:30:58;;;;;;;6.30;4.00;;;19.70;99.90;;;;;;5083507;28;20168;-73
2022/09/15 10:33:27;;;;;;;5.82;4.43;;;19.60;99.90;;;;;;5090132;28;20176;-72
2022/09/15 10:35:54;;;;;;;5.13;4.35;;;19.70;99.90;;;;;;5077856;28;20579;-71
2022/09/15 10:38:31;;;;;;;4.78;3.83;;;19.70;99.90;;;;;;5081900;28;20176;-72
2022/09/15 10:41:00;;;;;;;6.55;4.63;;;19.70;99.90;;;;;;5075415;28;20200;-73
2022/09/15 10:43:38;;;;;;;6.50;4.68;;;19.70;99.90;;;;;;5071142;28;20191;-72
2022/09/15 10:46:07;;;;;;;7.68;5.22;;;19.80;99.90;;;;;;5082589;28;20180;-73
2022/09/15 10:48:58;;;;;;;5.03;4.53;;;19.80;99.90;;;;;;5077490;28;20223;-72
2022/09/15 10:51:46;;;;;;;5.40;4.70;;;19.90;99.90;;;;;;5070768;28;20208;-72
2022/09/15 10:54:33;;;;;;;5.57;4.00;;;20.00;99.90;;;;;;5076469;28;20176;-72
2022/09/15 10:57:32;;;;;;;6.00;3.53;;;20.20;99.90;;;;;;5085653;28;20200;-72
2022/09/15 11:00:02;;;;;;;4.75;3.35;;;20.30;99.90;;;;;;5075973;28;20194;-72
2022/09/15 11:02:36;;;;;;;8.18;3.92;;;20.30;99.90;;;;;;5073990;28;20200;-72
2022/09/15 11:05:24;;;;;;;4.70;3.17;;;20.40;99.90;;;;;;5081243;28;20182;-71
2022/09/15 11:07:59;;;;;;;5.18;3.42;;;20.50;99.90;;;;;;5074155;28;20268;-72
2022/09/15 11:10:30;;;;;;;7.43;3.97;;;20.60;99.90;;;;;;5083556;28;20201;-72
2022/09/15 11:13:14;;;;;;;6.97;5.00;;;20.70;99.90;;;;;;5083585;28;20196;-72
2022/09/15 11:16:33;;;;;;;5.05;4.55;;;20.70;99.90;;;;;;5086732;28;20241;-71
2022/09/15 11:19:21;;;;;;;5.03;4.05;;;20.80;99.90;;;;;;5075610;28;20237;-73
2022/09/15 11:21:52;;;;;;;3.47;2.97;;;20.90;99.90;;;;;;5077746;28;20191;-69
2022/09/15 11:24:20;;;;;;;3.65;2.67;;;21.00;99.90;;;;;;5083775;28;20242;-73
2022/09/15 11:26:53;;;;;;;2.15;1.95;;;21.00;99.90;;;;;;5074701;28;20218;-73
2022/09/15 11:29:26;;;;;;;3.25;2.40;;;21.00;99.90;;;;;;5085776;28;20216;-72
2022/09/15 11:31:59;;;;;;;4.20;2.95;;;20.90;99.90;;;;;;5090504;28;20247;-72
2022/09/15 11:34:32;;;;;;;2.90;2.30;;;20.90;99.90;;;;;;5070822;28;20185;-71
2022/09/15 11:37:16;;;;;;;2.20;1.98;;;20.90;99.90;;;;;;5080844;28;20213;-72
2022/09/15 11:39:59;;;;;;;2.97;2.10;;;20.90;99.90;;;;;;5083114;28;20176;-72
2022/09/15 11:42:34;;;;;;;3.30;2.13;;;20.90;99.90;;;;;;5088476;28;20330;-72
2022/09/15 11:45:04;;;;;;;2.47;2.20;;;20.90;99.90;;;;;;5078586;28;20286;-72
2022/09/15 11:47:37;;;;;;;3.28;2.50;;;20.90;99.90;;;;;;5071563;28;20196;-71
2022/09/15 11:50:27;;;;;;;3.53;2.40;;;20.90;99.90;;;;;;5088865;28;20222;-71
2022/09/15 11:53:06;;;;;;;3.47;2.30;;;20.90;99.90;;;;;;5071442;28;20184;-73
2022/09/15 11:55:38;;;;;;;5.22;2.75;;;21.00;99.90;;;;;;5085455;28;20240;-69
2022/09/15 11:58:22;;;;;;;2.95;2.03;;;21.00;99.90;;;;;;5089627;28;20164;-71
2022/09/15 12:00:54;;;;;;;2.35;2.10;;;21.10;99.90;;;;;;5084374;28;20213;-72
2022/09/15 12:03:37;;;;;;;3.00;2.17;;;21.20;99.90;;;;;;5085458;28;20270;-72
2022/09/15 12:06:25;;;;;;;2.45;1.80;;;21.10;99.90;;;;;;5069487;28;20169;-70
2022/09/15 12:09:04;;;;;;;2.47;1.85;;;21.10;99.90;;;;;;5086003;28;20223;-72
2022/09/15 12:11:34;;;;;;;2.65;1.63;;;21.10;99.90;;;;;;5086461;28;20197;-72
2022/09/15 12:14:03;;;;;;;2.85;1.80;;;21.00;99.90;;;;;;5085997;28;20248;-72
2022/09/15 12:16:33;;;;;;;3.28;1.80;;;21.00;99.90;;;;;;5084285;28;20172;-72
2022/09/15 12:19:45;;;;;;;2.30;1.73;;;20.90;99.90;;;;;;5082239;28;20178;-71
2022/09/15 12:22:34;;;;;;;4.07;1.70;;;20.90;99.90;;;;;;5060322;28;20283;-72
2022/09/15 12:25:03;;;;;;;2.90;1.70;;;20.90;99.90;;;;;;5073039;28;20208;-72
2022/09/15 12:27:29;;;;;;;3.78;1.83;;;21.00;99.90;;;;;;5077537;28;20172;-71
2022/09/15 12:29:58;;;;;;;3.28;2.10;;;21.00;99.90;;;;;;5084429;28;20216;-72
2022/09/15 12:32:28;;;;;;;4.45;2.08;;;21.10;99.90;;;;;;5084320;28;20195;-72
2022/09/15 12:35:00;;;;;;;3.35;1.70;;;21.10;99.90;;;;;;5088280;28;20214;-69
2022/09/15 12:37:59;;;;;;;4.57;1.60;;;21.10;99.90;;;;;;5074089;28;20168;-73
2022/09/15 12:40:36;;;;;;;2.20;1.80;;;21.10;99.90;;;;;;5078100;28;20273;-72
2022/09/15 12:43:17;;;;;;;6.35;2.10;;;21.10;99.90;;;;;;5079680;28;20164;-71
2022/09/15 12:45:55;;;;;;;3.70;1.88;;;21.10;99.90;;;;;;5088693;28;20192;-71
2022/09/15 12:48:27;;;;;;;2.75;1.92;;;21.10;99.90;;;;;;5106446;28;20179;-72
2022/09/15 12:50:59;;;;;;;2.45;2.03;;;21.10;99.90;;;;;;5087251;28;20231;-72
2022/09/15 12:53:33;;;;;;;3.47;2.22;;;21.00;99.90;;;;;;5088864;28;20193;-72
2022/09/15 12:56:06;;;;;;;3.10;2.30;;;21.00;99.90;;;;;;5088167;28;20195;-72
2022/09/15 12:58:36;;;;;;;2.72;2.05;;;20.90;99.90;;;;;;5064480;28;20176;-71
2022/09/15 13:01:17;;;;;;;2.90;2.13;;;20.90;99.90;;;;;;5072309;28;20199;-72